createdAt,value
2022-12-25T00:00:50.353Z,17.93
2022-12-25T00:05:54.092Z,17.78
2022-12-25T00:11:05.354Z,17.21
2022-12-25T00:16:09.838Z,16.93
2022-12-25T00:21:14.784Z,16.83
2022-12-25T00:26:19.823Z,16.78
2022-12-25T00:44:56.907Z,16.24
2022-12-25T00:50:02.853Z,16.33
2022-12-25T01:01:41.838Z,16.28
2022-12-25T01:07:28.635Z,16.22
2022-12-25T01:19:53.151Z,16.17
2022-12-25T01:25:58.285Z,15.83
2022-12-25T01:31:11.630Z,15.98
2022-12-25T02:32:22.536Z,15.45
2022-12-25T03:14:19.043Z,16.10
2022-12-25T03:19:48.580Z,16.20
2022-12-25T03:25:12.225Z,16.28
2022-12-25T03:30:43.690Z,16.31
2022-12-25T03:36:04.064Z,16.33
2022-12-25T03:41:32.967Z,16.42
2022-12-25T03:47:10.327Z,16.48
2022-12-25T03:52:35.596Z,16.53
2022-12-25T03:57:59.852Z,16.61
2022-12-25T04:03:24.197Z,16.50
2022-12-25T04:08:47.488Z,16.65
2022-12-25T04:14:09.710Z,16.68
2022-12-25T04:19:33.884Z,16.73
2022-12-25T04:24:56.165Z,16.63
2022-12-25T04:30:18.390Z,16.47
2022-12-25T04:35:52.678Z,16.53
2022-12-25T04:41:09.851Z,16.63
2022-12-25T04:46:18.986Z,16.75
2022-12-25T04:51:28.308Z,16.83
2022-12-25T04:56:35.655Z,16.81
2022-12-25T05:01:48.439Z,16.80
2022-12-25T05:06:59.961Z,16.80
2022-12-25T05:12:04.156Z,16.80
2022-12-25T05:17:14.351Z,16.80
2022-12-25T05:22:37.558Z,16.83
2022-12-25T05:27:42.764Z,16.83
2022-12-25T05:32:51.024Z,16.82
2022-12-25T05:37:58.176Z,16.74
2022-12-25T05:43:04.375Z,16.67
2022-12-25T05:48:10.544Z,16.63
2022-12-25T05:53:18.757Z,16.63
2022-12-25T05:58:22.926Z,16.56
2022-12-25T06:03:29.299Z,16.61
2022-12-25T06:08:42.432Z,16.64
2022-12-25T06:13:47.536Z,16.64
2022-12-25T06:18:58.773Z,16.68
2022-12-25T06:24:07.080Z,16.63
2022-12-25T07:15:43.123Z,16.49
2022-12-25T09:29:34.690Z,15.15
2022-12-25T09:40:42.433Z,15.24
2022-12-25T09:53:00.006Z,15.36
2022-12-25T09:58:39.564Z,15.39
2022-12-25T10:48:07.530Z,15.62
2022-12-25T10:53:35.341Z,15.72
2022-12-25T10:58:54.452Z,15.80
2022-12-25T11:04:09.693Z,15.98
2022-12-25T11:09:23.891Z,16.10
2022-12-25T11:14:34.399Z,15.86
2022-12-25T11:19:43.399Z,15.81
2022-12-25T11:24:53.490Z,15.94
2022-12-25T11:30:04.740Z,16.09
2022-12-25T11:35:17.609Z,16.04
2022-12-25T11:41:19.140Z,15.83
2022-12-25T11:47:44.667Z,15.86
2022-12-25T11:53:52.644Z,15.77
2022-12-25T12:00:26.525Z,16.09
2022-12-25T12:10:44.030Z,16.22
2022-12-25T12:28:07.460Z,16.39
2022-12-25T12:33:23.525Z,16.34
2022-12-25T12:38:30.715Z,16.36
2022-12-25T12:44:04.096Z,16.44
2022-12-25T13:12:56.347Z,16.84
2022-12-25T13:18:05.990Z,16.82
2022-12-25T13:23:25.296Z,16.97
2022-12-25T13:28:33.446Z,16.99
2022-12-25T13:33:36.942Z,17.18
2022-12-25T13:38:49.857Z,16.99
2022-12-25T13:43:59.685Z,16.70
2022-12-25T13:49:03.161Z,16.50
2022-12-25T13:54:37.430Z,16.50
2022-12-25T13:59:51.802Z,16.42
2022-12-25T14:11:11.599Z,16.22
2022-12-25T14:16:21.446Z,16.08
2022-12-25T14:21:50.890Z,16.02
2022-12-25T14:27:01.172Z,16.06
2022-12-25T14:32:19.435Z,15.60
2022-12-25T14:37:31.761Z,15.59
2022-12-25T14:42:52.219Z,15.58
2022-12-25T14:48:25.730Z,15.65
2022-12-25T14:53:46.534Z,15.42
2022-12-25T14:58:55.560Z,15.35
2022-12-25T15:04:21.643Z,15.27
2022-12-25T15:09:28.865Z,15.32
2022-12-25T15:14:42.351Z,15.30
2022-12-25T15:19:50.536Z,15.26
2022-12-25T15:25:00.583Z,15.14
2022-12-25T15:30:10.424Z,15.10
2022-12-25T15:35:22.120Z,15.12
2022-12-25T15:40:25.335Z,15.27
2022-12-25T15:45:34.595Z,15.39
2022-12-25T15:51:34.366Z,15.40
2022-12-25T15:57:15.755Z,15.22
2022-12-25T16:02:28.679Z,15.12
2022-12-25T16:07:38.017Z,15.11
2022-12-25T16:13:02.099Z,15.05
2022-12-25T16:20:03.957Z,14.93
2022-12-25T16:41:49.808Z,15.11
2022-12-25T16:46:55.040Z,15.10
2022-12-25T16:52:01.135Z,15.06
2022-12-25T16:57:34.911Z,15.00
2022-12-25T17:02:42.310Z,14.94
2022-12-25T17:08:44.583Z,14.83
2022-12-25T17:15:58.437Z,14.88
2022-12-25T17:21:35.191Z,14.85
2022-12-25T17:38:32.061Z,14.75
2022-12-25T17:43:48.007Z,14.78
2022-12-25T17:48:53.475Z,14.62
2022-12-25T17:59:40.991Z,14.76
2022-12-25T18:04:45.235Z,14.80
2022-12-25T18:09:51.427Z,14.88
2022-12-25T18:14:55.618Z,14.93
2022-12-25T18:26:20.324Z,14.61
2022-12-25T18:31:26.621Z,14.57
2022-12-25T18:36:32.694Z,14.54
2022-12-25T18:41:59.987Z,14.52
2022-12-25T18:47:04.175Z,14.58
2022-12-25T18:52:48.522Z,14.66
2022-12-25T18:57:38.487Z,14.61
2022-12-25T19:03:00.023Z,14.52
2022-12-25T19:08:19.100Z,14.51
2022-12-25T19:13:24.812Z,14.50
2022-12-25T19:26:24.689Z,14.35
2022-12-25T19:56:22.598Z,14.61
2022-12-25T20:26:14.384Z,14.54
2022-12-25T20:31:24.645Z,14.59
2022-12-25T20:36:37.524Z,14.57
2022-12-25T20:41:51.210Z,14.57
2022-12-25T20:47:04.360Z,14.56
2022-12-25T20:52:34.265Z,14.40
2022-12-25T21:38:13.164Z,14.38
2022-12-25T21:43:19.589Z,14.34
2022-12-25T22:36:56.132Z,13.62
2022-12-25T23:10:13.675Z,13.91
